Time;durP1;ratioP1;P1;durP2;ratioP2;P2;SDS_P1;SDS_P2;PMS_P1;PMS_P2;Temp;Humidity;BMP_temperature;BMP_pressure;BME280_temperature;BME280_humidity;BME280_pressure;Samples;Min_cycle;Max_cycle;Signal;HPM_P1;HPM_P2
2022/09/22 00:00:16;;;;;;;1.98;1.08;;;;;;;;;;4541522;28;20044;-63
2022/09/22 00:02:26;;;;;;;1.88;1.40;;;;;;;;;;4543455;28;20086;-63
2022/09/22 00:04:37;;;;;;;1.95;1.20;;;;;;;;;;4522110;28;20037;-63
2022/09/22 00:06:50;;;;;;;1.50;1.10;;;;;;;;;;4543184;28;20033;-63
2022/09/22 00:09:01;;;;;;;1.20;1.10;;;;;;;;;;4544023;28;20521;-63
2022/09/22 00:11:18;;;;;;;1.90;1.20;;;;;;;;;;4527391;28;20033;-63
2022/09/22 00:13:29;;;;;;;1.67;1.10;;;;;;;;;;4543377;28;20041;-63
2022/09/22 00:15:44;;;;;;;1.25;1.08;;;;;;;;;;4526347;28;21493;-63
2022/09/22 00:17:55;;;;;;;1.52;1.15;;;;;;;;;;4524304;28;20088;-63
2022/09/22 00:20:06;;;;;;;1.33;1.10;;;;;;;;;;4543084;28;20049;-63
2022/09/22 00:22:16;;;;;;;1.35;1.10;;;;;;;;;;4540909;28;20151;-63
2022/09/22 00:24:27;;;;;;;1.50;1.13;;;;;;;;;;4541781;28;27875;-62
2022/09/22 00:26:38;;;;;;;1.58;1.10;;;;;;;;;;4543161;28;20150;-63
2022/09/22 00:28:50;;;;;;;0.98;0.85;;;;;;;;;;4542788;28;20048;-64
2022/09/22 00:31:08;;;;;;;1.25;1.10;;;;;;;;;;4542554;28;20028;-63
2022/09/22 00:33:19;;;;;;;1.35;1.05;;;;;;;;;;4542470;28;20033;-62
2022/09/22 00:35:29;;;;;;;1.48;1.20;;;;;;;;;;4542585;28;20044;-62
2022/09/22 00:37:40;;;;;;;1.60;1.10;;;;;;;;;;4525427;28;20136;-63
2022/09/22 00:39:52;;;;;;;1.45;1.00;;;;;;;;;;4540882;28;29828;-63
2022/09/22 00:42:03;;;;;;;1.92;1.27;;;;;;;;;;4541199;28;20042;-64
2022/09/22 00:44:20;;;;;;;1.95;1.10;;;;;;;;;;4541670;28;20582;-63
2022/09/22 00:46:30;;;;;;;1.23;0.90;;;;;;;;;;4542258;28;20586;-63
2022/09/22 00:48:48;;;;;;;1.92;1.30;;;;;;;;;;4540883;28;21771;-63
2022/09/22 00:51:00;;;;;;;1.58;1.10;;;;;;;;;;4512943;28;20048;-63
2022/09/22 00:53:13;;;;;;;2.30;1.20;;;;;;;;;;4542666;28;20029;-63
2022/09/22 00:55:33;;;;;;;1.38;1.10;;;;;;;;;;4542418;28;20061;-63
2022/09/22 00:57:45;;;;;;;1.20;1.10;;;;;;;;;;4539749;28;20025;-64
2022/09/22 00:59:56;;;;;;;1.63;1.10;;;;;;;;;;4541021;28;20059;-63
2022/09/22 01:02:06;;;;;;;1.50;1.15;;;;;;;;;;4540710;28;20502;-63
2022/09/22 01:04:17;;;;;;;1.50;1.10;;;;;;;;;;4526669;28;29645;-63
2022/09/22 01:06:27;;;;;;;1.98;1.10;;;;;;;;;;4541661;28;20032;-63
2022/09/22 01:08:38;;;;;;;1.85;1.13;;;;;;;;;;4539120;28;20021;-63
2022/09/22 01:10:49;;;;;;;1.30;1.20;;;;;;;;;;4540736;28;27025;-63
2022/09/22 01:13:13;;;;;;;1.20;1.10;;;;;;;;;;4540621;28;20033;-64
2022/09/22 01:15:31;;;;;;;1.45;1.10;;;;;;;;;;4540814;28;20033;-63
2022/09/22 01:18:00;;;;;;;1.23;1.00;;;;;;;;;;4542152;28;20086;-63
2022/09/22 01:20:24;;;;;;;2.20;1.10;;;;;;;;;;4541548;28;20044;-63
2022/09/22 01:22:54;;;;;;;1.42;1.00;;;;;;;;;;4541631;28;20033;-63
2022/09/22 01:25:07;;;;;;;2.05;1.25;;;;;;;;;;4525909;28;20110;-63
2022/09/22 01:27:59;;;;;;;1.48;1.00;;;;;;;;;;4542203;28;20029;-63
2022/09/22 01:30:27;;;;;;;1.33;1.08;;;;;;;;;;4472759;28;20050;-63
2022/09/22 01:32:59;;;;;;;1.05;0.85;;;;;;;;;;4514463;28;20053;-63
2022/09/22 01:35:30;;;;;;;1.30;0.98;;;;;;;;;;4540687;28;20032;-63
2022/09/22 01:38:15;;;;;;;1.20;0.90;;;;;;;;;;4539384;28;20036;-63
2022/09/22 01:40:36;;;;;;;1.85;1.10;;;;;;;;;;4541159;28;20041;-63
2022/09/22 01:42:51;;;;;;;1.27;0.98;;;;;;;;;;4542296;28;20021;-63
2022/09/22 01:45:07;;;;;;;1.45;1.00;;;;;;;;;;4526373;28;20592;-64
2022/09/22 01:47:25;;;;;;;1.27;1.07;;;;;;;;;;4543224;28;20329;-63
2022/09/22 01:49:40;;;;;;;1.27;1.10;;;;;;;;;;4525703;28;20602;-63
2022/09/22 01:51:58;;;;;;;1.10;1.00;;;;;;;;;;4512386;28;20661;-63
2022/09/22 01:54:35;;;;;;;1.88;1.20;;;;;;;;;;4525537;28;20865;-63
2022/09/22 01:56:48;;;;;;;2.03;0.90;;;;;;;;;;4521700;28;20050;-63
2022/09/22 01:59:02;;;;;;;1.38;1.10;;;;;;;;;;4530306;28;20033;-63
2022/09/22 02:01:15;;;;;;;1.13;1.00;;;;;;;;;;4526109;28;20100;-63
2022/09/22 02:03:37;;;;;;;1.27;1.00;;;;;;;;;;4525961;28;20080;-63
2022/09/22 02:05:56;;;;;;;1.10;1.00;;;;;;;;;;4543918;28;20041;-63
2022/09/22 02:08:10;;;;;;;0.98;0.88;;;;;;;;;;4528533;28;20096;-63
2022/09/22 02:10:24;;;;;;;1.63;1.15;;;;;;;;;;4535576;28;20072;-63
2022/09/22 02:12:35;;;;;;;1.65;1.35;;;;;;;;;;4541306;28;20036;-63
2022/09/22 02:14:46;;;;;;;1.40;1.05;;;;;;;;;;4525832;28;20111;-63
2022/09/22 02:16:58;;;;;;;1.88;1.10;;;;;;;;;;4541976;28;22481;-64
2022/09/22 02:19:15;;;;;;;1.15;0.90;;;;;;;;;;4542021;28;20145;-63
2022/09/22 02:21:26;;;;;;;1.17;1.00;;;;;;;;;;4524638;28;20202;-63
2022/09/22 02:23:37;;;;;;;1.83;0.93;;;;;;;;;;4543334;28;20042;-63
2022/09/22 02:25:48;;;;;;;1.10;0.90;;;;;;;;;;4542816;28;20079;-63
2022/09/22 02:27:59;;;;;;;1.13;0.90;;;;;;;;;;4526721;28;20037;-63
2022/09/22 02:30:10;;;;;;;1.08;0.93;;;;;;;;;;4543789;28;20047;-64
2022/09/22 02:32:21;;;;;;;1.63;1.00;;;;;;;;;;4544379;28;20034;-63
2022/09/22 02:34:32;;;;;;;1.27;1.00;;;;;;;;;;4542628;28;20063;-63
2022/09/22 02:36:52;;;;;;;1.15;0.98;;;;;;;;;;4543752;28;20033;-63
2022/09/22 02:39:37;;;;;;;1.60;1.00;;;;;;;;;;4526687;28;20187;-63
2022/09/22 02:42:09;;;;;;;1.15;0.80;;;;;;;;;;4543862;28;20044;-63
2022/09/22 02:44:24;;;;;;;1.05;0.90;;;;;;;;;;4542823;28;20375;-63
2022/09/22 02:46:39;;;;;;;0.88;0.80;;;;;;;;;;4524195;28;20056;-63
2022/09/22 02:48:56;;;;;;;2.30;1.08;;;;;;;;;;4543681;28;20032;-63
2022/09/22 02:51:07;;;;;;;;;;;;;;;;;;4544171;28;20033;-63
2022/09/22 02:53:17;;;;;;;1.25;0.82;;;;;;;;;;4543982;28;19916;-63
2022/09/22 02:55:27;;;;;;;1.27;0.90;;;;;;;;;;4542901;28;20025;-63
2022/09/22 02:57:38;;;;;;;1.30;1.08;;;;;;;;;;4544294;28;20045;-63
2022/09/22 02:59:48;;;;;;;1.20;0.90;;;;;;;;;;4544065;28;20044;-63
2022/09/22 03:01:59;;;;;;;1.77;1.00;;;;;;;;;;4544368;28;20817;-63
2022/09/22 03:04:09;;;;;;;1.20;1.10;;;;;;;;;;4543548;28;20084;-63
2022/09/22 03:06:19;;;;;;;0.75;0.70;;;;;;;;;;4543250;28;38748;-63
2022/09/22 03:08:30;;;;;;;2.08;1.00;;;;;;;;;;4544353;28;32479;-63
2022/09/22 03:10:40;;;;;;;1.40;1.00;;;;;;;;;;4543435;28;20045;-63
2022/09/22 03:12:51;;;;;;;1.42;0.90;;;;;;;;;;4542304;28;20036;-63
2022/09/22 03:15:01;;;;;;;1.45;1.10;;;;;;;;;;4544670;28;27782;-63
2022/09/22 03:17:12;;;;;;;1.05;0.80;;;;;;;;;;4544647;28;20062;-63
2022/09/22 03:19:22;;;;;;;1.20;0.90;;;;;;;;;;4544039;28;20041;-63
2022/09/22 03:21:32;;;;;;;1.20;0.90;;;;;;;;;;4544559;28;20463;-63
2022/09/22 03:23:43;;;;;;;1.23;0.90;;;;;;;;;;4543691;28;37206;-63
2022/09/22 03:25:53;;;;;;;1.10;0.80;;;;;;;;;;4544238;28;20029;-63
2022/09/22 03:28:04;;;;;;;1.33;1.00;;;;;;;;;;4544182;28;20045;-63
2022/09/22 03:30:14;;;;;;;0.80;0.80;;;;;;;;;;4544118;28;20115;-63
2022/09/22 03:32:25;;;;;;;1.45;1.00;;;;;;;;;;4543873;28;20043;-63
2022/09/22 03:34:35;;;;;;;1.98;0.93;;;;;;;;;;4529223;28;20087;-63
2022/09/22 03:36:46;;;;;;;2.08;0.90;;;;;;;;;;4541197;28;21847;-63
2022/09/22 03:41:50;;;;;;;1.20;1.10;;;;;;;;;;4544002;28;20092;-63
2022/09/22 03:44:01;;;;;;;1.45;0.93;;;;;;;;;;4543586;28;20055;-63
2022/09/22 03:46:13;;;;;;;1.50;1.10;;;;;;;;;;4543099;28;20081;-63
2022/09/22 03:48:24;;;;;;;1.65;1.10;;;;;;;;;;4543628;28;20055;-63
2022/09/22 03:50:35;;;;;;;2.55;1.30;;;;;;;;;;4542200;28;20135;-63
2022/09/22 03:52:45;;;;;;;1.38;1.13;;;;;;;;;;4542640;28;20504;-63
2022/09/22 03:54:56;;;;;;;1.42;0.93;;;;;;;;;;4543578;28;20044;-63
2022/09/22 03:57:06;;;;;;;1.30;1.00;;;;;;;;;;4542829;28;20143;-63
2022/09/22 03:59:38;;;;;;;1.10;1.00;;;;;;;;;;4543348;28;20053;-63
2022/09/22 04:01:48;;;;;;;1.10;1.00;;;;;;;;;;4544121;28;20630;-63
2022/09/22 04:03:59;;;;;;;0.93;0.90;;;;;;;;;;4541719;28;20044;-63
2022/09/22 04:06:10;;;;;;;1.75;1.17;;;;;;;;;;4541386;28;20039;-63
2022/09/22 04:08:20;;;;;;;1.23;0.88;;;;;;;;;;4543708;28;20029;-63
2022/09/22 04:10:30;;;;;;;1.55;1.00;;;;;;;;;;4523723;28;27955;-63
2022/09/22 04:12:42;;;;;;;1.00;0.90;;;;;;;;;;4524075;28;20026;-63
2022/09/22 04:14:52;;;;;;;1.17;0.95;;;;;;;;;;4540839;28;20615;-63
2022/09/22 04:17:03;;;;;;;1.02;0.90;;;;;;;;;;4543484;28;32965;-63
2022/09/22 04:19:14;;;;;;;1.00;0.90;;;;;;;;;;4542846;28;20044;-63
2022/09/22 04:21:24;;;;;;;0.80;0.80;;;;;;;;;;4542328;28;20052;-63
2022/09/22 04:23:35;;;;;;;1.10;1.00;;;;;;;;;;4541899;28;20032;-63
2022/09/22 04:25:46;;;;;;;1.13;0.82;;;;;;;;;;4525112;28;20037;-63
2022/09/22 04:27:56;;;;;;;1.20;0.77;;;;;;;;;;4540214;28;20041;-63
2022/09/22 04:30:07;;;;;;;0.90;0.85;;;;;;;;;;4543033;28;31687;-63
2022/09/22 04:32:18;;;;;;;1.13;0.80;;;;;;;;;;4542580;28;20115;-63
2022/09/22 04:34:28;;;;;;;1.88;1.00;;;;;;;;;;4527108;28;20048;-63
2022/09/22 04:36:39;;;;;;;1.55;1.00;;;;;;;;;;4541477;28;20557;-63
2022/09/22 04:38:49;;;;;;;0.85;0.80;;;;;;;;;;4541374;28;20033;-63
2022/09/22 04:41:00;;;;;;;1.08;0.90;;;;;;;;;;4542134;28;20055;-64
2022/09/22 04:43:11;;;;;;;0.85;0.70;;;;;;;;;;4541728;28;20095;-63
2022/09/22 04:45:21;;;;;;;0.85;0.80;;;;;;;;;;4544414;28;20041;-63
2022/09/22 04:47:32;;;;;;;1.48;0.98;;;;;;;;;;4524570;28;20081;-63
2022/09/22 04:49:43;;;;;;;1.55;0.90;;;;;;;;;;4542398;28;20040;-63
2022/09/22 04:51:53;;;;;;;1.35;1.00;;;;;;;;;;4542843;28;20067;-63
2022/09/22 04:54:04;;;;;;;1.35;0.88;;;;;;;;;;4543648;28;20036;-62
2022/09/22 04:56:14;;;;;;;1.02;0.77;;;;;;;;;;4539804;28;20127;-63
2022/09/22 04:58:25;;;;;;;1.05;0.90;;;;;;;;;;4541407;28;20041;-63
2022/09/22 05:00:36;;;;;;;1.45;1.10;;;;;;;;;;4542221;28;20032;-63
2022/09/22 05:02:46;;;;;;;1.55;0.90;;;;;;;;;;4539958;28;20152;-63
2022/09/22 05:04:57;;;;;;;0.88;0.88;;;;;;;;;;4539751;28;20035;-63
2022/09/22 05:07:07;;;;;;;1.05;0.90;;;;;;;;;;4539324;28;20037;-63
2022/09/22 05:09:19;;;;;;;1.92;1.02;;;;;;;;;;4540027;28;20103;-63
2022/09/22 05:11:30;;;;;;;1.15;1.00;;;;;;;;;;4533105;28;20608;-63
2022/09/22 05:13:41;;;;;;;1.10;0.90;;;;;;;;;;4542541;28;20033;-64
2022/09/22 05:15:51;;;;;;;1.63;1.00;;;;;;;;;;4541951;28;25316;-64
2022/09/22 05:28:39;;;;;;;0.80;0.80;;;;;;;;;;4544240;28;20041;-63
2022/09/22 05:39:41;;;;;;;1.50;0.90;;;;;;;;;;4542926;28;20049;-62
2022/09/22 05:45:39;;;;;;;1.75;0.93;;;;;;;;;;4529359;28;20616;-63
2022/09/22 05:47:58;;;;;;;1.50;1.00;;;;;;;;;;4526149;28;20053;-62
2022/09/22 05:50:11;;;;;;;1.52;1.08;;;;;;;;;;4543736;28;20037;-63
2022/09/22 05:52:21;;;;;;;1.45;1.10;;;;;;;;;;4543788;28;20038;-62
2022/09/22 05:54:41;;;;;;;2.40;1.45;;;;;;;;;;4542996;28;20036;-62
2022/09/22 05:56:52;;;;;;;1.65;1.00;;;;;;;;;;4525641;28;20581;-62
2022/09/22 05:59:02;;;;;;;2.45;1.00;;;;;;;;;;4544195;28;20029;-62
2022/09/22 06:01:13;;;;;;;1.10;1.00;;;;;;;;;;4543296;28;20499;-61
2022/09/22 06:03:23;;;;;;;1.92;1.10;;;;;;;;;;4541952;28;29171;-62
2022/09/22 06:05:34;;;;;;;1.52;1.02;;;;;;;;;;4543452;28;20098;-62
2022/09/22 06:07:45;;;;;;;1.40;1.20;;;;;;;;;;4542808;28;20036;-62
2022/09/22 06:09:55;;;;;;;1.88;1.10;;;;;;;;;;4545270;28;20029;-62
2022/09/22 06:12:07;;;;;;;2.30;1.20;;;;;;;;;;4543301;28;20483;-62
2022/09/22 06:14:39;;;;;;;1.75;1.10;;;;;;;;;;4543745;28;20151;-63
2022/09/22 06:17:39;;;;;;;1.42;1.17;;;;;;;;;;4535727;28;20806;-62
2022/09/22 06:19:50;;;;;;;1.50;1.13;;;;;;;;;;4543834;28;20036;-62
2022/09/22 06:22:01;;;;;;;1.85;0.98;;;;;;;;;;4498449;28;20093;-62
2022/09/22 06:24:11;;;;;;;1.55;1.08;;;;;;;;;;4509892;28;20041;-62
2022/09/22 06:26:22;;;;;;;1.77;1.00;;;;;;;;;;4510157;28;20026;-62
2022/09/22 06:28:38;;;;;;;1.42;0.90;;;;;;;;;;4507277;28;22573;-62
2022/09/22 06:30:50;;;;;;;2.30;1.10;;;;;;;;;;4523685;28;20048;-62
2022/09/22 06:33:01;;;;;;;1.17;0.80;;;;;;;;;;4524114;28;20157;-62
2022/09/22 06:35:12;;;;;;;1.10;0.90;;;;;;;;;;4523918;28;20033;-62
2022/09/22 06:37:22;;;;;;;1.88;0.90;;;;;;;;;;4514675;28;20037;-62
2022/09/22 06:39:36;;;;;;;1.88;1.13;;;;;;;;;;4517389;28;20025;-62
2022/09/22 06:41:46;;;;;;;1.92;1.10;;;;;;;;;;4522012;28;20046;-62
2022/09/22 06:43:58;;;;;;;1.08;0.98;;;;;;;;;;4523292;28;20242;-62
2022/09/22 06:46:09;;;;;;;0.90;0.90;;;;;;;;;;4511183;28;20091;-62
2022/09/22 06:48:22;;;;;;;1.80;1.00;;;;;;;;;;4523668;28;20077;-62
2022/09/22 06:50:33;;;;;;;1.52;0.90;;;;;;;;;;4523607;28;20052;-62
2022/09/22 06:52:43;;;;;;;2.03;1.13;;;;;;;;;;4524377;28;20038;-62
2022/09/22 06:54:57;;;;;;;2.03;1.38;;;;;;;;;;4524132;28;20049;-61
2022/09/22 06:57:10;;;;;;;2.10;1.20;;;;;;;;;;4524303;28;20033;-62
2022/09/22 06:59:21;;;;;;;1.55;1.10;;;;;;;;;;4522888;28;20069;-62
2022/09/22 07:01:31;;;;;;;1.55;1.00;;;;;;;;;;4524335;28;27650;-62
2022/09/22 07:03:43;;;;;;;1.50;1.00;;;;;;;;;;4509219;28;20029;-62
2022/09/22 07:06:02;;;;;;;3.47;1.10;;;;;;;;;;4506715;28;20041;-62
2022/09/22 07:08:12;;;;;;;2.28;1.20;;;;;;;;;;4524694;28;20037;-62
2022/09/22 07:10:23;;;;;;;1.75;1.00;;;;;;;;;;4524510;28;20108;-62
2022/09/22 07:12:33;;;;;;;1.20;1.05;;;;;;;;;;4523066;28;20115;-63
2022/09/22 07:14:47;;;;;;;1.42;0.98;;;;;;;;;;4523983;28;30696;-63
2022/09/22 07:16:58;;;;;;;1.55;1.00;;;;;;;;;;4523219;28;20202;-63
2022/09/22 07:19:09;;;;;;;1.35;0.98;;;;;;;;;;4523587;28;20534;-63
2022/09/22 07:21:28;;;;;;;2.08;1.08;;;;;;;;;;4524843;28;20041;-63
2022/09/22 07:23:39;;;;;;;2.22;1.27;;;;;;;;;;4515561;28;20060;-63
2022/09/22 07:25:55;;;;;;;1.58;1.10;;;;;;;;;;4522952;28;20088;-63
2022/09/22 07:28:12;;;;;;;1.90;1.10;;;;;;;;;;4511543;28;20102;-63
2022/09/22 07:30:25;;;;;;;1.85;0.93;;;;;;;;;;4522713;28;20037;-62
2022/09/22 07:32:35;;;;;;;2.28;1.13;;;;;;;;;;4523993;28;20033;-63
2022/09/22 07:34:46;;;;;;;1.73;1.00;;;;;;;;;;4525213;28;20029;-63
2022/09/22 07:36:58;;;;;;;1.38;1.00;;;;;;;;;;4524622;28;20393;-63
2022/09/22 07:39:11;;;;;;;1.40;1.20;;;;;;;;;;4523691;28;20037;-63
2022/09/22 07:41:23;;;;;;;2.03;1.30;;;;;;;;;;4522364;28;20069;-62
2022/09/22 07:43:34;;;;;;;1.27;1.05;;;;;;;;;;4524227;28;20021;-62
2022/09/22 07:45:53;;;;;;;1.42;0.90;;;;;;;;;;4524745;28;20348;-63
2022/09/22 07:48:36;;;;;;;1.25;1.10;;;;;;;;;;4524213;28;20076;-62
2022/09/22 07:50:53;;;;;;;1.27;1.10;;;;;;;;;;4521811;28;20116;-63
2022/09/22 07:53:03;;;;;;;1.52;0.98;;;;;;;;;;4505138;28;20025;-62
2022/09/22 07:55:14;;;;;;;1.15;1.00;;;;;;;;;;4523313;28;20048;-65
2022/09/22 07:57:24;;;;;;;1.33;0.90;;;;;;;;;;4522971;28;20464;-62
2022/09/22 07:59:35;;;;;;;1.83;1.10;;;;;;;;;;4522124;28;20442;-63
2022/09/22 08:01:47;;;;;;;1.50;1.00;;;;;;;;;;4523042;28;20059;-62
2022/09/22 08:03:58;;;;;;;1.70;1.10;;;;;;;;;;4524228;28;20038;-62
2022/09/22 08:06:10;;;;;;;1.42;0.80;;;;;;;;;;4522328;28;26949;-62
2022/09/22 08:08:20;;;;;;;1.42;1.05;;;;;;;;;;4515929;28;20029;-62
2022/09/22 08:10:34;;;;;;;1.20;0.90;;;;;;;;;;4523703;28;20067;-62
2022/09/22 08:12:45;;;;;;;1.23;1.00;;;;;;;;;;4520260;28;20818;-63
2022/09/22 08:14:56;;;;;;;0.95;0.90;;;;;;;;;;4524390;28;20107;-62
2022/09/22 08:17:11;;;;;;;1.27;0.80;;;;;;;;;;4523476;28;20025;-62
2022/09/22 08:19:22;;;;;;;1.25;0.80;;;;;;;;;;4507353;28;20038;-63
2022/09/22 08:21:34;;;;;;;0.80;0.80;;;;;;;;;;4521480;28;20041;-62
2022/09/22 08:23:44;;;;;;;1.15;0.98;;;;;;;;;;4523162;28;20025;-62
2022/09/22 08:25:55;;;;;;;1.17;1.08;;;;;;;;;;4524131;28;20752;-63
2022/09/22 08:28:06;;;;;;;1.35;1.10;;;;;;;;;;4524743;28;20505;-62
2022/09/22 08:30:18;;;;;;;2.03;1.20;;;;;;;;;;4522466;28;20042;-62
2022/09/22 08:32:29;;;;;;;1.90;1.10;;;;;;;;;;4520230;28;20071;-62
2022/09/22 08:34:39;;;;;;;1.50;1.05;;;;;;;;;;4522647;28;20100;-62
2022/09/22 08:36:50;;;;;;;2.13;1.00;;;;;;;;;;4523133;28;20037;-62
2022/09/22 08:39:01;;;;;;;1.58;1.05;;;;;;;;;;4523254;28;20380;-61
2022/09/22 08:41:25;;;;;;;1.95;1.15;;;;;;;;;;4522325;28;20075;-62
2022/09/22 08:43:43;;;;;;;1.23;1.05;;;;;;;;;;4521860;28;20028;-69
2022/09/22 08:46:40;;;;;;;1.33;0.98;;;;;;;;;;4522440;28;20129;-71
2022/09/22 08:55:06;;;;;;;0.85;0.85;;;;;;;;;;5493474;22;20028;-64
2022/09/22 08:57:28;;;;;;;0.90;0.73;;;;;;;;;;4509171;28;20050;-65
2022/09/22 08:59:52;;;;;;;1.50;0.90;;;;;;;;;;4510643;28;20633;-64
2022/09/22 09:02:31;;;;;;;1.17;0.85;;;;;;;;;;4488082;28;20137;-64
2022/09/22 09:05:02;;;;;;;1.55;1.05;;;;;;;;;;4506910;28;20111;-64
2022/09/22 09:07:42;;;;;;;1.33;0.88;;;;;;;;;;4497837;28;20158;-65
2022/09/22 09:10:14;;;;;;;1.02;0.88;;;;;;;;;;4512528;28;20037;-64
2022/09/22 09:12:27;;;;;;;1.00;0.70;;;;;;;;;;4511531;28;20041;-64
2022/09/22 09:14:41;;;;;;;1.35;0.70;;;;;;;;;;4513125;28;20037;-64
2022/09/22 09:17:00;;;;;;;0.70;0.70;;;;;;;;;;4512347;28;20124;-64
2022/09/22 09:19:15;;;;;;;1.35;0.70;;;;;;;;;;4512789;28;20584;-65
2022/09/22 09:21:26;;;;;;;1.05;0.63;;;;;;;;;;4511969;28;20519;-65
2022/09/22 09:23:50;;;;;;;1.80;0.85;;;;;;;;;;4511981;28;20038;-64
2022/09/22 09:26:01;;;;;;;0.82;0.70;;;;;;;;;;4512103;28;20615;-64
2022/09/22 09:28:18;;;;;;;1.58;0.80;;;;;;;;;;4487763;28;20081;-64
2022/09/22 09:30:37;;;;;;;1.23;0.80;;;;;;;;;;4493096;28;20046;-64
2022/09/22 09:33:10;;;;;;;1.30;0.80;;;;;;;;;;4497192;28;20791;-64
2022/09/22 09:35:25;;;;;;;0.85;0.70;;;;;;;;;;4494235;28;20327;-65
2022/09/22 09:37:35;;;;;;;0.68;0.65;;;;;;;;;;4511782;28;20608;-65
2022/09/22 09:39:46;;;;;;;1.25;0.70;;;;;;;;;;4513548;28;20034;-64
2022/09/22 09:41:57;;;;;;;0.75;0.57;;;;;;;;;;4511572;28;20051;-64
2022/09/22 09:44:14;;;;;;;1.45;0.70;;;;;;;;;;4512020;28;20057;-64
2022/09/22 09:46:33;;;;;;;1.50;0.50;;;;;;;;;;4494686;28;20124;-64
2022/09/22 09:49:08;;;;;;;1.05;0.73;;;;;;;;;;4510234;28;20112;-64
2022/09/22 09:51:19;;;;;;;2.03;0.70;;;;;;;;;;4511483;28;20034;-64
2022/09/22 09:53:29;;;;;;;1.17;0.70;;;;;;;;;;4511587;28;20030;-64
2022/09/22 09:55:40;;;;;;;0.80;0.50;;;;;;;;;;4513015;28;20121;-64
2022/09/22 10:00:55;;;;;;;0.70;0.60;;;;;;;;;;4507643;28;20664;-64
2022/09/22 10:03:14;;;;;;;0.68;0.50;;;;;;;;;;4509777;28;20033;-64
2022/09/22 10:05:26;;;;;;;0.80;0.60;;;;;;;;;;4513148;28;20128;-64
2022/09/22 10:07:42;;;;;;;0.68;0.50;;;;;;;;;;4503558;28;20590;-64
2022/09/22 10:09:54;;;;;;;0.73;0.60;;;;;;;;;;4510915;28;20659;-64
2022/09/22 10:12:05;;;;;;;0.60;0.60;;;;;;;;;;4511464;28;20136;-64
2022/09/22 10:14:17;;;;;;;0.77;0.68;;;;;;;;;;4511215;28;20042;-64
2022/09/22 10:16:29;;;;;;;0.50;0.50;;;;;;;;;;4513068;28;20036;-64
2022/09/22 10:18:39;;;;;;;0.50;0.50;;;;;;;;;;4511188;28;20038;-64
2022/09/22 10:21:17;;;;;;;0.70;0.40;;;;;;;;;;4510738;28;20048;-64
2022/09/22 10:23:31;;;;;;;0.75;0.52;;;;;;;;;;4513332;28;20033;-65
2022/09/22 10:25:42;;;;;;;0.65;0.60;;;;;;;;;;4511719;28;20152;-64
2022/09/22 10:27:58;;;;;;;0.60;0.60;;;;;;;;;;4511864;28;20525;-64
2022/09/22 10:30:09;;;;;;;1.87;0.60;;;;;;;;;;4511643;28;20120;-64
2022/09/22 10:32:20;;;;;;;0.57;0.50;;;;;;;;;;4510476;28;20046;-65
2022/09/22 10:34:47;;;;;;;0.60;0.60;;;;;;;;;;4513193;28;24230;-63
2022/09/22 10:36:59;;;;;;;0.85;0.60;;;;;;;;;;4511534;28;20030;-63
2022/09/22 10:39:16;;;;;;;0.77;0.60;;;;;;;;;;4496490;28;20035;-63
2022/09/22 10:41:30;;;;;;;0.60;0.43;;;;;;;;;;4512713;28;20045;-66
2022/09/22 10:43:52;;;;;;;1.20;0.60;;;;;;;;;;4513732;28;20046;-62
2022/09/22 10:46:16;;;;;;;0.80;0.60;;;;;;;;;;4497235;28;20034;-64
2022/09/22 10:49:15;;;;;;;1.40;0.50;;;;;;;;;;4505779;28;20158;-62
2022/09/22 10:51:44;;;;;;;1.02;0.57;;;;;;;;;;4465234;28;20054;-63
2022/09/22 10:54:18;;;;;;;1.60;0.60;;;;;;;;;;4506127;28;20030;-63
2022/09/22 10:56:36;;;;;;;0.50;0.50;;;;;;;;;;4496534;28;20037;-64
2022/09/22 10:59:33;;;;;;;0.47;0.43;;;;;;;;;;4510853;28;20077;-63
2022/09/22 11:01:59;;;;;;;0.75;0.40;;;;;;;;;;4509342;28;20514;-63
2022/09/22 11:04:28;;;;;;;0.47;0.47;;;;;;;;;;4487085;28;20062;-63
2022/09/22 11:12:16;;;;;;;0.70;0.40;;;;;;;;;;4510688;28;20075;-63
2022/09/22 11:14:33;;;;;;;0.57;0.40;;;;;;;;;;4496194;28;20041;-63
2022/09/22 11:16:55;;;;;;;0.50;0.50;;;;;;;;;;4501150;28;20896;-63
2022/09/22 11:19:24;;;;;;;0.50;0.50;;;;;;;;;;4496392;28;20360;-63
2022/09/22 11:21:46;;;;;;;0.40;0.40;;;;;;;;;;4511368;28;20048;-63
2022/09/22 11:24:15;;;;;;;1.17;0.60;;;;;;;;;;4509341;28;20042;-63
2022/09/22 11:27:01;;;;;;;1.13;0.68;;;;;;;;;;4503051;28;20582;-63
2022/09/22 11:29:36;;;;;;;0.60;0.50;;;;;;;;;;4459476;28;20202;-63
2022/09/22 11:32:07;;;;;;;1.55;0.55;;;;;;;;;;4494145;28;20104;-63
2022/09/22 11:34:29;;;;;;;1.98;0.50;;;;;;;;;;4511030;28;20042;-63
2022/09/22 11:37:29;;;;;;;1.02;0.50;;;;;;;;;;4496612;28;20089;-63
2022/09/22 11:39:57;;;;;;;0.55;0.55;;;;;;;;;;4510280;28;20072;-63
2022/09/22 11:42:20;;;;;;;0.82;0.63;;;;;;;;;;4512929;28;20053;-64
2022/09/22 11:44:35;;;;;;;0.45;0.40;;;;;;;;;;4495871;28;20177;-63
2022/09/22 11:47:06;;;;;;;0.35;0.35;;;;;;;;;;4511577;28;20128;-63
2022/09/22 11:49:54;;;;;;;0.65;0.40;;;;;;;;;;4509592;28;20853;-63
2022/09/22 11:52:16;;;;;;;0.60;0.40;;;;;;;;;;4502478;28;20045;-62
2022/09/22 11:54:38;;;;;;;0.90;0.30;;;;;;;;;;4510436;28;20554;-62
2022/09/22 11:56:51;;;;;;;0.77;0.60;;;;;;;;;;4513055;28;20039;-63
2022/09/22 11:59:09;;;;;;;0.60;0.50;;;;;;;;;;4498387;28;20150;-63
2022/09/22 12:01:23;;;;;;;0.50;0.40;;;;;;;;;;4494425;28;20046;-63
2022/09/22 12:03:38;;;;;;;0.35;0.35;;;;;;;;;;4512523;28;20032;-63
2022/09/22 12:05:57;;;;;;;0.88;0.45;;;;;;;;;;4502460;28;20045;-63
2022/09/22 12:08:12;;;;;;;0.93;0.40;;;;;;;;;;4511506;28;20030;-63
2022/09/22 12:10:33;;;;;;;0.30;0.30;;;;;;;;;;4510959;28;20022;-64
2022/09/22 12:12:49;;;;;;;0.70;0.40;;;;;;;;;;4510953;28;20874;-64
2022/09/22 12:15:31;;;;;;;0.70;0.40;;;;;;;;;;4512327;28;20042;-63
2022/09/22 12:17:54;;;;;;;0.32;0.32;;;;;;;;;;4499838;28;20049;-63
2022/09/22 12:20:15;;;;;;;0.77;0.40;;;;;;;;;;4510431;28;20045;-63
2022/09/22 12:22:55;;;;;;;0.55;0.40;;;;;;;;;;4510562;28;20558;-63
2022/09/22 12:25:12;;;;;;;0.98;0.45;;;;;;;;;;4485041;28;20681;-65
2022/09/22 12:27:24;;;;;;;1.13;0.32;;;;;;;;;;4509519;28;20586;-63
2022/09/22 12:29:36;;;;;;;0.95;0.40;;;;;;;;;;4492668;28;20054;-63
2022/09/22 12:31:48;;;;;;;1.00;0.40;;;;;;;;;;4496526;28;20687;-63
2022/09/22 12:33:59;;;;;;;0.82;0.50;;;;;;;;;;4507883;28;20034;-63
2022/09/22 12:36:09;;;;;;;0.50;0.50;;;;;;;;;;4508430;28;20036;-62
2022/09/22 12:38:20;;;;;;;0.30;0.30;;;;;;;;;;4507414;28;27806;-63
2022/09/22 12:40:36;;;;;;;1.02;0.35;;;;;;;;;;4510485;28;20137;-63
2022/09/22 12:42:49;;;;;;;0.32;0.30;;;;;;;;;;4511691;28;20526;-63
2022/09/22 12:45:08;;;;;;;0.45;0.40;;;;;;;;;;4504643;28;20128;-63
2022/09/22 12:47:22;;;;;;;0.77;0.40;;;;;;;;;;4498342;28;20128;-63
2022/09/22 12:49:33;;;;;;;0.75;0.40;;;;;;;;;;4495515;28;20066;-63
2022/09/22 12:51:44;;;;;;;0.77;0.40;;;;;;;;;;4510010;28;20128;-64
2022/09/22 12:54:22;;;;;;;0.45;0.40;;;;;;;;;;4512041;28;20034;-63
2022/09/22 12:56:43;;;;;;;;;;;;;;;;;;4510475;28;20326;-63
2022/09/22 12:58:53;;;;;;;0.55;0.32;;;;;;;;;;4511294;28;19917;-63
2022/09/22 13:01:27;;;;;;;1.23;0.47;;;;;;;;;;4509234;28;20513;-63
2022/09/22 13:03:39;;;;;;;0.82;0.45;;;;;;;;;;4504367;28;20029;-63
2022/09/22 13:05:51;;;;;;;0.40;0.40;;;;;;;;;;4510486;28;20906;-63
2022/09/22 13:08:03;;;;;;;0.93;0.40;;;;;;;;;;4511006;28;20102;-63
2022/09/22 13:12:33;;;;;;;0.40;0.40;;;;;;;;;;4509672;28;20036;-63
2022/09/22 13:15:22;;;;;;;0.55;0.40;;;;;;;;;;4509449;28;20077;-63
2022/09/22 13:17:42;;;;;;;0.50;0.40;;;;;;;;;;4454835;28;20614;-63
2022/09/22 13:19:54;;;;;;;0.98;0.50;;;;;;;;;;4454117;28;20853;-63
2022/09/22 13:22:16;;;;;;;0.30;0.30;;;;;;;;;;4462196;28;20058;-64
2022/09/22 13:24:27;;;;;;;0.75;0.40;;;;;;;;;;4509050;28;20121;-63
2022/09/22 13:26:39;;;;;;;0.50;0.40;;;;;;;;;;4509758;28;20040;-63
2022/09/22 13:29:18;;;;;;;0.40;0.40;;;;;;;;;;4501036;28;20113;-63
2022/09/22 13:31:55;;;;;;;0.77;0.35;;;;;;;;;;4493791;28;20045;-63
2022/09/22 13:34:28;;;;;;;0.50;0.40;;;;;;;;;;4506639;28;20082;-64
2022/09/22 13:36:39;;;;;;;0.57;0.30;;;;;;;;;;4509623;28;20127;-63
2022/09/22 13:38:53;;;;;;;0.35;0.30;;;;;;;;;;4510799;28;20022;-64
2022/09/22 13:41:10;;;;;;;0.30;0.30;;;;;;;;;;4513512;28;20049;-66
2022/09/22 13:43:26;;;;;;;;;;;;;;;;;;4513225;28;20040;-64
2022/09/22 13:45:37;;;;;;;0.45;0.40;;;;;;;;;;4509599;28;19917;-63
2022/09/22 13:47:49;;;;;;;0.45;0.40;;;;;;;;;;4498404;28;20035;-63
2022/09/22 13:50:05;;;;;;;0.40;0.40;;;;;;;;;;4511988;28;20030;-63
2022/09/22 13:52:21;;;;;;;0.75;0.50;;;;;;;;;;4512546;28;20036;-63
2022/09/22 13:54:34;;;;;;;0.30;0.30;;;;;;;;;;4505192;28;20038;-63
2022/09/22 13:56:45;;;;;;;0.73;0.30;;;;;;;;;;4512291;28;20022;-63
2022/09/22 13:58:58;;;;;;;0.52;0.30;;;;;;;;;;4510967;28;20500;-63
2022/09/22 14:01:22;;;;;;;0.32;0.32;;;;;;;;;;4504140;28;20037;-63
2022/09/22 14:03:37;;;;;;;0.63;0.40;;;;;;;;;;4471616;28;20035;-63
2022/09/22 14:05:49;;;;;;;0.40;0.40;;;;;;;;;;4512306;28;20121;-63
2022/09/22 14:08:02;;;;;;;0.85;0.50;;;;;;;;;;4512089;28;20034;-63
2022/09/22 14:10:18;;;;;;;0.40;0.40;;;;;;;;;;4506440;28;20653;-63
2022/09/22 14:12:29;;;;;;;0.50;0.30;;;;;;;;;;4511742;28;20085;-63
2022/09/22 14:14:39;;;;;;;0.52;0.38;;;;;;;;;;4513146;28;20046;-63
2022/09/22 14:16:55;;;;;;;0.70;0.43;;;;;;;;;;4513705;28;20109;-63
2022/09/22 14:19:33;;;;;;;0.43;0.38;;;;;;;;;;4513126;28;20040;-63